Time;durP1;ratioP1;P1;durP2;ratioP2;P2;SDS_P1;SDS_P2;PMS_P1;PMS_P2;Temp;Humidity;BMP_temperature;BMP_pressure;BME280_temperature;BME280_humidity;BME280_pressure;Samples;Min_cycle;Max_cycle;Signal;HPM_P1;HPM_P2
2021/12/08 00:02:00;;;;;;;8.33;4.47;;;3.60;99.90;;;;;;4687653;30;20049;-82
2021/12/08 00:04:26;;;;;;;12.77;5.20;;;3.60;99.90;;;;;;4693986;30;20521;-82
2021/12/08 00:06:51;;;;;;;8.23;5.43;;;3.60;99.90;;;;;;4691643;30;20045;-81
2021/12/08 00:09:46;;;;;;;9.50;4.83;;;3.50;99.90;;;;;;4676475;30;20054;-82
2021/12/08 00:14:57;;;;;;;10.23;5.30;;;3.50;99.90;;;;;;4696337;30;20494;-82
2021/12/08 00:17:23;;;;;;;11.27;5.23;;;3.40;99.90;;;;;;4688563;30;20049;-82
2021/12/08 00:19:49;;;;;;;8.50;4.97;;;3.50;99.90;;;;;;4679807;30;20052;-82
2021/12/08 00:22:15;;;;;;;9.47;4.83;;;3.40;99.90;;;;;;4705155;30;20049;-82
2021/12/08 00:24:40;;;;;;;8.60;5.00;;;3.40;99.90;;;;;;4690438;30;20080;-82
2021/12/08 00:27:07;;;;;;;10.80;4.97;;;3.40;99.90;;;;;;4678106;30;20553;-82
2021/12/08 00:29:33;;;;;;;9.67;5.07;;;3.40;99.90;;;;;;4689496;30;20568;-83
2021/12/08 00:31:59;;;;;;;8.97;4.93;;;3.50;99.90;;;;;;4691231;30;20509;-82
2021/12/08 00:34:26;;;;;;;11.00;5.17;;;3.40;99.90;;;;;;4710156;30;20447;-82
2021/12/08 00:36:56;;;;;;;13.47;4.87;;;3.40;99.90;;;;;;4681037;30;20174;-82
2021/12/08 00:39:22;;;;;;;10.73;5.07;;;3.40;99.90;;;;;;4677461;30;20495;-81
2021/12/08 00:41:49;;;;;;;8.97;5.23;;;3.40;99.90;;;;;;4706958;30;20136;-81
2021/12/08 00:44:15;;;;;;;14.53;5.70;;;3.40;99.90;;;;;;4682048;30;20132;-82
2021/12/08 00:46:41;;;;;;;9.97;5.20;;;3.40;99.90;;;;;;4690304;30;20133;-82
2021/12/08 00:49:08;;;;;;;12.07;4.97;;;3.50;99.90;;;;;;4696613;30;20045;-82
2021/12/08 00:51:35;;;;;;;7.97;4.90;;;3.50;99.90;;;;;;4674451;30;20053;-82
2021/12/08 00:54:01;;;;;;;9.97;5.03;;;3.50;99.90;;;;;;4682709;30;20134;-81
2021/12/08 00:56:27;;;;;;;11.07;4.70;;;3.50;99.90;;;;;;4679025;30;20112;-82
2021/12/08 00:58:53;;;;;;;9.80;5.10;;;3.50;99.90;;;;;;4681267;30;20438;-82
2021/12/08 01:01:19;;;;;;;8.33;4.20;;;3.60;99.90;;;;;;4692865;30;20147;-82
2021/12/08 01:03:46;;;;;;;13.80;4.63;;;3.60;99.90;;;;;;4706186;30;20068;-82
2021/12/08 01:06:13;;;;;;;6.67;4.43;;;3.60;99.90;;;;;;4684081;30;20049;-82
2021/12/08 01:08:40;;;;;;;9.83;4.07;;;3.70;99.90;;;;;;4691523;30;20107;-82
2021/12/08 01:11:10;;;;;;;6.73;3.80;;;3.70;99.90;;;;;;4697838;30;20049;-83
2021/12/08 01:13:36;;;;;;;11.07;3.97;;;3.80;99.90;;;;;;4702317;30;20080;-82
2021/12/08 01:16:02;;;;;;;12.03;3.80;;;3.80;99.90;;;;;;4695760;30;20068;-82
2021/12/08 01:18:30;;;;;;;8.93;4.03;;;3.80;99.90;;;;;;4692140;30;20048;-82
2021/12/08 01:20:58;;;;;;;9.13;5.23;;;3.80;99.90;;;;;;4682855;30;20052;-82
2021/12/08 01:23:24;;;;;;;7.00;3.97;;;3.90;99.90;;;;;;4706546;30;20056;-82
2021/12/08 01:25:50;;;;;;;7.27;3.97;;;3.90;99.90;;;;;;4701314;30;20053;-82
2021/12/08 01:28:19;;;;;;;5.73;3.50;;;3.90;99.90;;;;;;4676210;30;20468;-81
2021/12/08 01:30:45;;;;;;;4.67;3.83;;;4.00;99.90;;;;;;4686919;30;20058;-81
2021/12/08 01:33:11;;;;;;;10.53;3.90;;;3.90;99.90;;;;;;4697793;30;20049;-81
2021/12/08 01:35:37;;;;;;;6.50;4.13;;;3.90;99.90;;;;;;4687384;30;20409;-81
2021/12/08 01:38:04;;;;;;;8.53;4.27;;;3.90;99.90;;;;;;4697077;30;20132;-82
2021/12/08 01:40:30;;;;;;;6.07;4.03;;;3.90;99.90;;;;;;4696034;30;20053;-82
2021/12/08 01:42:58;;;;;;;10.90;4.53;;;3.90;99.90;;;;;;4682728;30;20063;-82
2021/12/08 01:48:15;;;;;;;9.10;4.10;;;3.90;99.90;;;;;;4698343;30;20490;-82
2021/12/08 01:50:44;;;;;;;9.03;5.07;;;3.80;99.90;;;;;;4690394;30;20141;-82
2021/12/08 01:53:10;;;;;;;8.70;4.47;;;3.80;99.90;;;;;;4685986;30;20465;-82
2021/12/08 01:55:38;;;;;;;11.13;4.47;;;3.90;99.90;;;;;;4694996;30;20492;-82
2021/12/08 01:58:05;;;;;;;6.80;4.40;;;3.80;99.90;;;;;;4701735;30;20148;-82
2021/12/08 02:00:32;;;;;;;7.20;4.40;;;3.90;99.90;;;;;;4679435;30;20128;-81
2021/12/08 02:02:58;;;;;;;9.63;4.90;;;3.90;99.90;;;;;;4691327;30;20092;-81
2021/12/08 02:05:25;;;;;;;10.07;4.67;;;3.80;99.90;;;;;;4708583;30;20107;-82
2021/12/08 02:07:51;;;;;;;9.33;4.23;;;3.80;99.90;;;;;;4684952;30;20049;-82
2021/12/08 02:10:17;;;;;;;7.57;4.40;;;3.90;99.90;;;;;;4696629;30;20084;-82
2021/12/08 02:12:43;;;;;;;7.33;4.10;;;3.80;99.90;;;;;;4691345;30;20056;-82
2021/12/08 02:15:13;;;;;;;9.93;4.67;;;3.80;99.90;;;;;;4692197;30;20132;-82
2021/12/08 02:17:39;;;;;;;10.37;4.83;;;3.80;99.90;;;;;;4712484;30;20061;-82
2021/12/08 02:20:08;;;;;;;6.27;4.17;;;3.80;99.90;;;;;;4705119;30;20048;-82
2021/12/08 02:22:34;;;;;;;7.53;4.20;;;3.80;99.90;;;;;;4710197;30;20056;-82
2021/12/08 02:25:00;;;;;;;9.37;4.23;;;3.80;99.90;;;;;;4683475;30;20045;-82
2021/12/08 02:27:26;;;;;;;10.50;4.60;;;3.80;99.90;;;;;;4690705;30;20102;-82
2021/12/08 02:29:58;;;;;;;6.70;4.10;;;3.80;99.90;;;;;;4709899;30;20494;-81
2021/12/08 02:48:21;;;;;;;7.10;4.60;;;3.80;99.90;;;;;;4677280;30;20049;-82
2021/12/08 02:50:46;;;;;;;11.33;5.07;;;3.80;99.90;;;;;;4683235;30;20185;-82
2021/12/08 02:53:14;;;;;;;6.80;4.40;;;3.80;99.90;;;;;;4704800;30;20408;-82
2021/12/08 02:55:41;;;;;;;7.50;4.47;;;3.80;99.90;;;;;;4700460;30;20049;-81
2021/12/08 02:58:07;;;;;;;8.33;4.37;;;3.90;99.90;;;;;;4688382;30;20115;-81
2021/12/08 03:00:40;;;;;;;9.27;4.47;;;3.90;99.90;;;;;;4697306;30;20463;-81
2021/12/08 03:03:06;;;;;;;6.47;3.97;;;3.90;99.90;;;;;;4688622;30;20061;-82
2021/12/08 03:05:33;;;;;;;10.60;4.40;;;3.90;99.90;;;;;;4682408;30;20580;-82
2021/12/08 03:07:59;;;;;;;6.00;4.33;;;4.00;99.90;;;;;;4705234;30;20450;-82
2021/12/08 03:10:28;;;;;;;7.63;4.90;;;4.00;99.90;;;;;;4697072;30;20053;-81
2021/12/08 03:12:54;;;;;;;11.43;5.40;;;4.00;99.90;;;;;;4689692;30;20088;-81
2021/12/08 03:15:20;;;;;;;10.07;4.67;;;3.90;99.90;;;;;;4694332;30;20446;-81
2021/12/08 03:17:46;;;;;;;7.53;4.90;;;4.00;99.90;;;;;;4671179;30;20050;-81
2021/12/08 03:20:15;;;;;;;9.30;5.17;;;4.00;99.90;;;;;;4708814;30;20044;-80
2021/12/08 03:22:46;;;;;;;7.70;4.60;;;4.00;99.90;;;;;;4690202;30;20084;-81
2021/12/08 03:25:15;;;;;;;8.87;4.87;;;4.00;99.90;;;;;;4690608;30;20119;-81
2021/12/08 03:27:52;;;;;;;7.17;5.33;;;4.00;99.90;;;;;;4713478;30;20045;-81
2021/12/08 03:30:33;;;;;;;8.40;5.27;;;4.00;99.90;;;;;;4671380;30;20092;-81
2021/12/08 03:32:59;;;;;;;7.60;5.53;;;4.10;99.90;;;;;;4678982;30;20419;-82
2021/12/08 03:35:26;;;;;;;8.83;5.53;;;4.10;99.90;;;;;;4672346;30;20060;-82
2021/12/08 03:37:52;;;;;;;7.23;5.77;;;4.10;99.90;;;;;;4676538;30;20053;-81
2021/12/08 03:40:19;;;;;;;8.00;6.10;;;4.10;99.90;;;;;;4679999;30;20037;-82
2021/12/08 03:42:47;;;;;;;9.23;5.97;;;4.20;99.90;;;;;;4705792;30;20063;-82
2021/12/08 03:45:34;;;;;;;10.00;6.13;;;4.10;99.90;;;;;;4708879;30;20041;-81
2021/12/08 03:48:06;;;;;;;9.77;5.73;;;4.20;99.90;;;;;;4710096;30;20049;-82
2021/12/08 03:50:35;;;;;;;;;;;4.20;99.90;;;;;;4701699;30;20111;-81
2021/12/08 03:53:00;;;;;;;10.27;6.13;;;4.20;99.90;;;;;;4690281;30;19933;-82
2021/12/08 03:55:26;;;;;;;8.00;6.07;;;4.30;99.90;;;;;;4695797;30;20486;-81
2021/12/08 03:57:52;;;;;;;10.50;7.07;;;4.30;99.90;;;;;;4690241;30;20041;-82
2021/12/08 04:00:22;;;;;;;12.67;7.07;;;4.30;99.90;;;;;;4659668;30;20053;-84
2021/12/08 04:02:49;;;;;;;9.10;7.20;;;4.30;99.90;;;;;;4689743;30;20411;-82
2021/12/08 04:05:20;;;;;;;9.60;6.70;;;4.30;99.90;;;;;;4688613;30;20046;-82
2021/12/08 04:07:47;;;;;;;9.77;7.60;;;4.30;99.90;;;;;;4709281;30;20060;-82
2021/12/08 04:10:20;;;;;;;9.43;7.33;;;4.40;99.90;;;;;;4660000;30;20109;-82
2021/12/08 04:12:52;;;;;;;11.17;7.53;;;4.40;99.90;;;;;;4706911;30;20534;-82
2021/12/08 04:15:21;;;;;;;12.77;7.10;;;4.40;99.90;;;;;;4694089;30;20060;-83
2021/12/08 04:17:49;;;;;;;11.77;7.40;;;4.40;99.90;;;;;;4696285;30;20507;-82
2021/12/08 04:20:24;;;;;;;10.67;7.23;;;4.40;99.90;;;;;;4688670;30;20136;-82
2021/12/08 04:22:52;;;;;;;10.63;7.30;;;4.50;99.90;;;;;;4712256;30;20084;-82
2021/12/08 04:25:25;;;;;;;11.97;7.53;;;4.40;99.90;;;;;;4703492;30;20049;-82
2021/12/08 04:27:53;;;;;;;12.07;8.13;;;4.50;99.90;;;;;;4706457;30;20068;-81
2021/12/08 04:30:30;;;;;;;12.20;7.83;;;4.50;99.90;;;;;;4714928;30;20123;-82
2021/12/08 04:32:56;;;;;;;9.87;7.77;;;4.50;99.90;;;;;;4710363;30;20061;-82
2021/12/08 04:35:22;;;;;;;11.67;7.90;;;4.50;99.90;;;;;;4686776;30;20060;-82
2021/12/08 04:37:52;;;;;;;13.97;8.47;;;4.50;99.90;;;;;;4686430;30;20502;-82
2021/12/08 04:40:35;;;;;;;11.80;8.07;;;4.60;99.90;;;;;;4696064;30;20048;-82
2021/12/08 04:43:13;;;;;;;11.63;7.77;;;4.50;99.90;;;;;;4726528;30;20052;-82
2021/12/08 04:46:05;;;;;;;10.70;8.17;;;4.50;99.90;;;;;;4695028;30;20056;-82
2021/12/08 04:49:11;;;;;;;12.30;8.03;;;4.60;99.90;;;;;;4710664;30;20082;-82
2021/12/08 05:07:57;;;;;;;13.40;9.33;;;4.70;99.90;;;;;;4708120;30;20041;-81
2021/12/08 05:10:33;;;;;;;12.37;8.40;;;4.80;99.90;;;;;;4676287;30;20080;-82
2021/12/08 05:13:00;;;;;;;12.10;8.70;;;4.80;99.90;;;;;;4681327;30;20080;-82
2021/12/08 05:15:32;;;;;;;12.87;8.70;;;4.80;99.90;;;;;;4689003;30;20056;-82
2021/12/08 05:18:13;;;;;;;11.73;8.35;;;4.80;99.90;;;;;;4710765;30;20486;-82
2021/12/08 05:20:42;;;;;;;11.73;8.03;;;4.80;99.90;;;;;;4703126;30;20048;-81
2021/12/08 05:23:28;;;;;;;12.60;8.70;;;4.80;99.90;;;;;;4694145;30;20088;-82
2021/12/08 05:25:55;;;;;;;13.73;8.60;;;4.80;99.90;;;;;;4701725;30;20041;-81
2021/12/08 05:28:24;;;;;;;12.63;8.23;;;4.70;99.90;;;;;;4682117;30;20045;-82
2021/12/08 05:31:00;;;;;;;12.27;8.40;;;4.70;99.90;;;;;;4703517;30;20427;-83
2021/12/08 05:33:27;;;;;;;11.43;8.23;;;4.70;99.90;;;;;;4688610;30;20052;-82
2021/12/08 05:35:54;;;;;;;15.53;8.10;;;4.70;99.90;;;;;;4685166;30;20060;-82
2021/12/08 05:38:20;;;;;;;11.90;8.23;;;4.70;99.90;;;;;;4697165;30;20054;-82
2021/12/08 05:40:56;;;;;;;9.20;8.20;;;4.60;99.90;;;;;;4679412;30;20077;-83
2021/12/08 05:43:22;;;;;;;11.30;8.10;;;4.70;99.90;;;;;;4693665;30;20521;-82
2021/12/08 05:45:50;;;;;;;10.13;7.70;;;4.70;99.90;;;;;;4712034;30;20140;-82
2021/12/08 05:48:17;;;;;;;13.30;8.90;;;4.70;99.90;;;;;;4711093;30;20196;-82
2021/12/08 05:51:03;;;;;;;11.90;8.17;;;4.70;99.90;;;;;;4687797;30;20063;-82
2021/12/08 05:53:30;;;;;;;11.73;8.07;;;4.70;99.90;;;;;;4691110;30;20053;-82
2021/12/08 05:55:57;;;;;;;10.73;8.03;;;4.80;99.90;;;;;;4704850;30;20463;-83
2021/12/08 05:58:26;;;;;;;13.43;8.53;;;4.70;99.90;;;;;;4688355;30;20060;-83
2021/12/08 06:01:07;;;;;;;12.20;8.03;;;4.70;99.90;;;;;;4688314;30;20045;-83
2021/12/08 06:03:34;;;;;;;10.03;7.80;;;4.70;99.90;;;;;;4708388;30;20042;-82
2021/12/08 06:06:00;;;;;;;10.50;7.67;;;4.70;99.90;;;;;;4712426;30;20494;-82
2021/12/08 06:08:30;;;;;;;12.17;7.77;;;4.70;99.90;;;;;;4692742;30;20104;-83
2021/12/08 06:10:58;;;;;;;16.37;8.80;;;4.60;99.90;;;;;;4679242;30;20050;-82
2021/12/08 06:13:24;;;;;;;14.50;8.47;;;4.70;99.90;;;;;;4682069;30;20502;-83
2021/12/08 06:15:50;;;;;;;14.37;8.27;;;4.80;99.90;;;;;;4709516;30;20137;-83
2021/12/08 06:18:21;;;;;;;14.50;8.80;;;4.70;99.90;;;;;;4695191;30;20084;-83
2021/12/08 06:20:47;;;;;;;10.80;7.77;;;4.80;99.90;;;;;;4676509;30;20036;-83
2021/12/08 06:23:13;;;;;;;10.03;8.37;;;4.80;99.90;;;;;;4705255;30;20053;-83
2021/12/08 06:25:39;;;;;;;12.67;8.87;;;4.80;99.90;;;;;;4676497;30;20042;-83
2021/12/08 06:28:08;;;;;;;13.67;8.10;;;4.80;99.90;;;;;;4696357;30;20506;-83
2021/12/08 06:30:36;;;;;;;13.87;7.87;;;4.80;99.90;;;;;;4704770;30;20103;-83
2021/12/08 06:33:03;;;;;;;10.13;7.10;;;4.80;99.90;;;;;;4702678;30;20460;-82
2021/12/08 06:35:35;;;;;;;11.67;7.57;;;4.80;99.90;;;;;;4708852;30;20049;-82
2021/12/08 06:38:01;;;;;;;11.02;6.32;;;4.80;99.90;;;;;;4696325;30;20553;-83
2021/12/08 06:40:37;;;;;;;10.43;7.00;;;4.80;99.90;;;;;;4661095;30;20077;-83
2021/12/08 06:43:05;;;;;;;12.70;7.03;;;4.80;99.90;;;;;;4701116;30;20485;-82
2021/12/08 06:45:37;;;;;;;12.97;7.97;;;4.80;99.90;;;;;;4705644;30;20137;-83
2021/12/08 06:48:08;;;;;;;12.32;7.90;;;4.80;99.90;;;;;;4696701;30;20042;-83
2021/12/08 06:50:43;;;;;;;17.30;7.80;;;4.80;99.90;;;;;;4697813;30;20057;-82
2021/12/08 06:53:09;;;;;;;11.50;7.13;;;4.80;99.90;;;;;;4691959;30;20075;-83
2021/12/08 06:55:46;;;;;;;10.03;6.43;;;4.80;99.90;;;;;;4697280;30;20509;-83
2021/12/08 06:58:20;;;;;;;12.33;7.47;;;4.80;99.90;;;;;;4708009;30;20111;-83
2021/12/08 07:01:35;;;;;;;11.70;7.03;;;4.80;99.90;;;;;;4682611;30;20403;-83
2021/12/08 07:04:10;;;;;;;10.37;6.20;;;4.80;99.90;;;;;;4695333;30;20058;-82
2021/12/08 07:06:45;;;;;;;10.77;5.87;;;4.80;99.90;;;;;;4705364;30;20143;-83
2021/12/08 07:09:22;;;;;;;11.60;6.47;;;4.80;99.90;;;;;;4707611;30;20052;-82
2021/12/08 07:11:53;;;;;;;9.77;5.00;;;4.90;99.90;;;;;;4707918;30;20499;-83
2021/12/08 07:14:20;;;;;;;7.23;4.47;;;4.80;99.90;;;;;;4674096;30;20124;-82
2021/12/08 07:16:49;;;;;;;9.07;4.77;;;4.90;99.90;;;;;;4699168;30;20037;-82
2021/12/08 07:19:42;;;;;;;5.80;3.93;;;4.90;99.90;;;;;;4705684;30;20541;-83
2021/12/08 07:22:12;;;;;;;7.43;4.22;;;4.90;99.90;;;;;;4683210;30;20091;-82
2021/12/08 07:24:42;;;;;;;9.87;4.27;;;4.90;99.90;;;;;;4686867;30;20041;-82
2021/12/08 07:27:15;;;;;;;7.40;4.20;;;5.00;99.90;;;;;;4704164;30;20103;-82
2021/12/08 07:29:44;;;;;;;7.60;3.70;;;4.90;99.90;;;;;;4689399;30;20069;-82
2021/12/08 07:32:18;;;;;;;12.57;3.90;;;5.00;99.90;;;;;;4694291;30;20057;-82
2021/12/08 07:34:44;;;;;;;9.07;3.40;;;4.90;99.90;;;;;;4688000;30;20053;-82
2021/12/08 07:37:14;;;;;;;7.50;3.70;;;4.90;99.90;;;;;;4685504;30;20061;-82
2021/12/08 07:39:45;;;;;;;6.63;3.97;;;4.90;99.90;;;;;;4680921;30;20049;-81
2021/12/08 07:42:36;;;;;;;4.90;3.25;;;4.90;99.90;;;;;;4686109;30;20058;-82
2021/12/08 07:45:08;;;;;;;8.80;3.40;;;4.90;99.90;;;;;;4689063;30;20049;-82
2021/12/08 07:47:36;;;;;;;5.38;3.50;;;4.90;99.90;;;;;;4689773;30;20085;-81
2021/12/08 07:50:09;;;;;;;5.83;3.43;;;4.80;99.90;;;;;;4696338;30;20461;-81
2021/12/08 07:52:40;;;;;;;8.53;3.33;;;4.90;99.90;;;;;;4680580;30;20050;-81
2021/12/08 07:55:26;;;;;;;7.22;3.60;;;4.90;99.90;;;;;;4685241;30;20060;-81
2021/12/08 07:57:52;;;;;;;9.20;3.40;;;4.90;99.90;;;;;;4692634;30;20504;-80
2021/12/08 08:00:24;;;;;;;7.47;3.30;;;4.90;99.90;;;;;;4678266;30;20049;-80
2021/12/08 08:02:51;;;;;;;6.65;3.15;;;5.00;99.90;;;;;;4683840;30;20108;-79
2021/12/08 08:05:19;;;;;;;8.47;2.97;;;5.00;99.90;;;;;;4708215;30;20046;-79
2021/12/08 08:07:47;;;;;;;7.13;2.87;;;5.00;99.90;;;;;;4685754;30;20124;-79
2021/12/08 08:10:15;;;;;;;7.03;2.60;;;5.10;99.90;;;;;;4694269;30;20045;-80
2021/12/08 08:12:44;;;;;;;10.70;2.90;;;5.10;99.90;;;;;;4700010;30;20060;-80
2021/12/08 08:15:21;;;;;;;11.10;2.90;;;5.00;99.90;;;;;;4683539;30;20056;-79
2021/12/08 08:17:51;;;;;;;9.87;2.63;;;5.10;99.90;;;;;;4723867;30;20052;-79
2021/12/08 08:20:34;;;;;;;5.60;2.37;;;5.10;99.90;;;;;;4686277;30;20041;-80
2021/12/08 08:23:01;;;;;;;7.93;2.50;;;5.00;99.90;;;;;;4680563;30;20056;-80
2021/12/08 08:25:32;;;;;;;8.97;2.60;;;5.20;99.90;;;;;;4691486;30;20058;-80
2021/12/08 08:27:58;;;;;;;8.82;2.28;;;5.20;99.90;;;;;;4697849;30;20597;-80
2021/12/08 08:30:29;;;;;;;4.93;2.20;;;5.20;99.90;;;;;;4681604;30;20092;-80
2021/12/08 08:32:56;;;;;;;9.47;2.57;;;5.30;99.90;;;;;;4694060;30;20523;-80
2021/12/08 08:35:30;;;;;;;8.03;2.30;;;5.30;99.90;;;;;;4666377;30;20049;-79
2021/12/08 08:37:58;;;;;;;9.70;2.60;;;5.30;99.90;;;;;;4686126;30;20507;-80
2021/12/08 08:40:34;;;;;;;9.50;1.97;;;5.30;99.90;;;;;;4685196;30;20049;-79
2021/12/08 08:43:01;;;;;;;9.33;2.47;;;5.40;99.90;;;;;;4706272;30;20057;-80
2021/12/08 08:45:43;;;;;;;9.23;2.17;;;5.40;99.90;;;;;;4658599;30;20131;-79
2021/12/08 08:48:15;;;;;;;5.77;2.27;;;5.50;99.90;;;;;;4682188;30;20046;-79
2021/12/08 08:50:43;;;;;;;4.80;2.13;;;5.40;99.90;;;;;;4678955;30;20389;-80
2021/12/08 08:53:10;;;;;;;8.03;2.50;;;5.50;99.90;;;;;;4701159;30;20522;-79
2021/12/08 08:56:04;;;;;;;8.03;2.10;;;5.50;99.90;;;;;;4671130;30;20056;-80
2021/12/08 08:58:31;;;;;;;6.67;2.17;;;5.60;99.90;;;;;;4678240;30;20045;-80
2021/12/08 09:01:13;;;;;;;6.33;2.40;;;5.60;99.90;;;;;;4688933;30;20136;-80
2021/12/08 09:03:50;;;;;;;6.53;2.13;;;5.60;99.90;;;;;;4681808;30;20444;-80
2021/12/08 09:06:22;;;;;;;6.57;2.33;;;5.70;99.90;;;;;;4681913;30;20077;-80
2021/12/08 09:08:48;;;;;;;6.33;2.43;;;5.70;99.90;;;;;;4715682;30;20139;-80
2021/12/08 09:11:16;;;;;;;7.47;2.57;;;5.70;99.90;;;;;;4676536;30;20132;-80
2021/12/08 09:13:47;;;;;;;10.77;3.00;;;5.80;99.90;;;;;;4711247;30;20521;-80
2021/12/08 09:16:30;;;;;;;6.88;2.50;;;5.90;99.90;;;;;;4706370;30;20057;-80
2021/12/08 09:19:05;;;;;;;8.60;2.40;;;5.90;99.90;;;;;;4693529;30;20056;-80
2021/12/08 09:21:31;;;;;;;6.53;2.27;;;5.90;99.90;;;;;;4697382;30;20053;-80
2021/12/08 09:24:07;;;;;;;11.70;3.30;;;5.90;99.90;;;;;;4688597;30;20051;-81
2021/12/08 09:26:37;;;;;;;8.43;2.70;;;6.00;99.90;;;;;;4691132;30;20053;-79
2021/12/08 09:29:12;;;;;;;5.83;2.87;;;6.00;99.90;;;;;;4692760;30;20403;-80
2021/12/08 09:31:53;;;;;;;9.40;2.67;;;6.00;99.90;;;;;;4693947;30;20050;-81
2021/12/08 09:34:24;;;;;;;5.77;2.23;;;6.00;99.90;;;;;;4696973;30;20053;-81
2021/12/08 09:36:53;;;;;;;10.23;2.77;;;5.90;99.90;;;;;;4704980;30;20045;-80
2021/12/08 09:39:24;;;;;;;6.07;2.30;;;6.00;99.90;;;;;;4701319;30;20069;-80
2021/12/08 09:42:18;;;;;;;9.37;2.57;;;5.90;99.90;;;;;;4688156;30;20059;-81
2021/12/08 09:44:48;;;;;;;8.87;2.47;;;5.80;99.90;;;;;;4682351;30;20495;-81
2021/12/08 09:47:14;;;;;;;9.80;2.83;;;5.80;99.90;;;;;;4692186;30;20056;-80
2021/12/08 09:49:41;;;;;;;5.27;2.50;;;5.90;99.90;;;;;;4697138;30;20045;-80
2021/12/08 09:52:08;;;;;;;7.03;2.70;;;5.80;99.90;;;;;;4710728;30;20057;-80
2021/12/08 09:54:37;;;;;;;7.17;2.83;;;5.90;99.90;;;;;;4673998;30;20076;-81
2021/12/08 09:57:08;;;;;;;8.63;3.07;;;5.90;99.90;;;;;;4690392;30;20067;-80
2021/12/08 09:59:35;;;;;;;6.82;2.30;;;6.00;99.90;;;;;;4672230;30;20121;-80
2021/12/08 10:02:04;;;;;;;8.70;2.50;;;6.00;99.90;;;;;;4666239;30;20132;-80
2021/12/08 10:04:31;;;;;;;9.03;3.23;;;6.10;99.90;;;;;;4676028;30;20038;-80
2021/12/08 10:07:00;;;;;;;11.07;3.10;;;6.10;99.90;;;;;;4684335;30;20056;-81
2021/12/08 10:09:26;;;;;;;12.93;2.87;;;6.00;99.90;;;;;;4701504;30;20056;-80
2021/12/08 10:11:55;;;;;;;6.00;2.53;;;6.00;99.90;;;;;;4706807;30;20058;-80
2021/12/08 10:14:21;;;;;;;10.93;3.27;;;6.00;99.90;;;;;;4698673;30;20124;-81
2021/12/08 10:16:50;;;;;;;8.60;2.77;;;6.00;99.90;;;;;;4695342;30;20053;-80
2021/12/08 10:19:17;;;;;;;7.67;2.50;;;6.10;99.90;;;;;;4691047;30;20059;-80
2021/12/08 10:21:44;;;;;;;10.23;3.03;;;6.10;99.90;;;;;;4683039;30;20049;-80
2021/12/08 10:24:22;;;;;;;8.43;2.83;;;6.10;99.90;;;;;;4667405;30;20069;-81
2021/12/08 10:26:51;;;;;;;5.40;2.80;;;6.10;99.90;;;;;;4682793;30;20521;-80
2021/12/08 10:29:26;;;;;;;7.77;3.20;;;6.10;99.90;;;;;;4683965;30;20058;-80
2021/12/08 10:31:55;;;;;;;8.70;2.97;;;6.20;99.90;;;;;;4684200;30;20511;-80
2021/12/08 10:34:29;;;;;;;9.87;3.07;;;6.20;99.90;;;;;;4669106;30;20660;-80
2021/12/08 10:37:02;;;;;;;7.10;3.23;;;6.20;99.90;;;;;;4699344;30;20053;-80
2021/12/08 10:39:27;;;;;;;;;;;6.30;99.90;;;;;;4700337;30;20462;-81
2021/12/08 10:42:07;;;;;;;8.20;2.97;;;6.30;99.90;;;;;;4684825;30;19926;-80
2021/12/08 10:44:56;;;;;;;10.80;3.33;;;6.40;99.90;;;;;;4699196;30;20121;-80
2021/12/08 10:47:25;;;;;;;10.83;3.17;;;6.40;99.90;;;;;;4685744;30;20073;-80
2021/12/08 10:55:12;;;;;;;9.27;2.90;;;6.40;99.90;;;;;;4702343;30;20410;-79
2021/12/08 10:57:39;;;;;;;8.33;2.80;;;6.50;99.90;;;;;;4681629;30;20049;-79
2021/12/08 11:00:16;;;;;;;6.23;3.23;;;6.60;99.90;;;;;;4694116;30;20557;-80
2021/12/08 11:02:52;;;;;;;9.60;3.17;;;6.60;99.90;;;;;;4683808;30;20050;-80
2021/12/08 11:05:24;;;;;;;9.93;2.87;;;6.70;99.90;;;;;;4679897;30;20223;-79
2021/12/08 11:08:06;;;;;;;5.85;2.85;;;6.70;99.90;;;;;;4697967;30;20052;-79
2021/12/08 11:10:37;;;;;;;9.32;3.95;;;6.60;99.90;;;;;;4698019;30;20053;-81
2021/12/08 11:13:02;;;;;;;10.67;3.00;;;6.60;99.90;;;;;;4681873;30;20499;-80
2021/12/08 11:15:30;;;;;;;7.13;2.97;;;6.70;99.90;;;;;;4677859;30;20053;-80
2021/12/08 11:18:17;;;;;;;6.47;2.80;;;6.70;99.90;;;;;;4707779;30;20053;-80
2021/12/08 11:21:24;;;;;;;5.50;3.10;;;6.60;99.90;;;;;;4696595;30;20045;-79
2021/12/08 11:23:52;;;;;;;7.67;3.00;;;6.60;99.90;;;;;;4676812;30;20057;-80
2021/12/08 11:26:25;;;;;;;9.43;3.40;;;6.60;99.90;;;;;;4695215;30;20046;-79
2021/12/08 11:29:13;;;;;;;5.20;3.03;;;6.50;99.90;;;;;;4692653;30;20049;-80
2021/12/08 11:32:10;;;;;;;7.87;3.10;;;6.50;99.90;;;;;;4703273;30;20478;-80
2021/12/08 11:34:46;;;;;;;9.90;3.20;;;6.50;99.90;;;;;;4681003;30;20058;-79
2021/12/08 11:37:15;;;;;;;8.27;3.30;;;6.50;99.90;;;;;;4686389;30;20053;-80
2021/12/08 11:39:43;;;;;;;13.20;3.80;;;6.50;99.90;;;;;;4694290;30;20045;-79
2021/12/08 11:42:12;;;;;;;10.87;3.30;;;6.50;99.90;;;;;;4685766;30;20085;-79
2021/12/08 11:44:46;;;;;;;10.67;3.47;;;6.50;99.90;;;;;;4699700;30;20133;-79
2021/12/08 11:47:15;;;;;;;7.30;3.30;;;6.40;99.90;;;;;;4678126;30;20099;-79
2021/12/08 11:49:45;;;;;;;5.43;3.30;;;6.50;99.90;;;;;;4707944;30;20140;-79
2021/12/08 11:52:18;;;;;;;11.10;4.03;;;6.50;99.90;;;;;;4703976;30;20175;-80
2021/12/08 11:54:49;;;;;;;7.53;3.40;;;6.40;99.90;;;;;;4704108;30;20056;-79
2021/12/08 11:57:20;;;;;;;7.97;3.20;;;6.40;99.90;;;;;;4692353;30;20053;-80
2021/12/08 12:00:01;;;;;;;6.13;3.43;;;6.40;99.90;;;;;;4694883;30;20064;-80
2021/12/08 12:02:44;;;;;;;7.80;3.43;;;6.40;99.90;;;;;;4701568;30;20473;-79
2021/12/08 12:05:18;;;;;;;10.07;3.20;;;6.40;99.90;;;;;;4691051;30;20045;-80
2021/12/08 12:07:44;;;;;;;6.77;3.00;;;6.40;99.90;;;;;;4684796;30;20087;-79
2021/12/08 12:10:14;;;;;;;6.73;3.13;;;6.40;99.90;;;;;;4694757;30;20060;-80
2021/12/08 12:12:41;;;;;;;6.10;2.67;;;6.40;99.90;;;;;;4684950;30;20207;-79
2021/12/08 12:15:19;;;;;;;7.57;3.10;;;6.40;99.90;;;;;;4694009;30;20275;-79
2021/12/08 12:17:47;;;;;;;6.97;3.23;;;6.40;99.90;;;;;;4685272;30;20064;-79
2021/12/08 12:20:18;;;;;;;7.60;3.00;;;6.40;99.90;;;;;;4707738;30;20403;-79
2021/12/08 12:22:59;;;;;;;7.65;3.08;;;6.40;99.90;;;;;;4689974;30;20053;-79
2021/12/08 12:25:41;;;;;;;5.67;3.03;;;6.40;99.90;;;;;;4682854;30;20050;-80
2021/12/08 12:28:25;;;;;;;7.07;3.00;;;6.30;99.90;;;;;;4684926;30;20042;-80
2021/12/08 12:31:28;;;;;;;7.03;2.90;;;6.30;99.90;;;;;;4695728;30;20118;-79
2021/12/08 12:33:54;;;;;;;11.73;4.20;;;6.30;99.90;;;;;;4694399;30;20061;-79
2021/12/08 12:36:24;;;;;;;7.77;2.90;;;6.30;99.90;;;;;;4698537;30;20541;-79
2021/12/08 12:38:51;;;;;;;8.70;3.63;;;6.30;99.90;;;;;;4692340;30;20085;-79
2021/12/08 12:41:31;;;;;;;9.53;3.43;;;6.30;99.90;;;;;;4684992;30;20384;-79
2021/12/08 12:44:18;;;;;;;7.00;3.33;;;6.40;99.90;;;;;;4705379;30;20514;-79
2021/12/08 12:47:03;;;;;;;7.63;2.97;;;6.30;99.90;;;;;;4694884;30;20056;-79
2021/12/08 12:49:29;;;;;;;5.93;2.90;;;6.30;99.90;;;;;;4711022;30;20061;-79
2021/12/08 12:52:00;;;;;;;6.60;3.43;;;6.30;99.90;;;;;;4673927;30;20049;-80
2021/12/08 12:54:26;;;;;;;9.13;3.10;;;6.30;99.90;;;;;;4684325;30;20080;-79
2021/12/08 12:56:54;;;;;;;9.27;3.10;;;6.30;99.90;;;;;;4694279;30;20049;-80
2021/12/08 12:59:22;;;;;;;7.83;2.77;;;6.30;99.90;;;;;;4702754;30;20084;-81
2021/12/08 13:02:08;;;;;;;5.77;2.87;;;6.30;99.90;;;;;;4696113;30;20056;-81
2021/12/08 13:04:48;;;;;;;6.50;2.67;;;6.20;99.90;;;;;;4696436;30;20475;-80
2021/12/08 13:07:14;;;;;;;9.27;2.87;;;6.30;99.90;;;;;;4691729;30;20083;-80
2021/12/08 13:09:52;;;;;;;7.37;2.90;;;6.30;99.90;;;;;;4680024;30;20134;-79
2021/12/08 13:12:26;;;;;;;4.53;2.43;;;6.30;99.90;;;;;;4702870;30;20053;-80
2021/12/08 13:15:21;;;;;;;10.63;3.00;;;6.30;99.90;;;;;;4699053;30;20061;-80
2021/12/08 13:18:11;;;;;;;5.80;2.70;;;6.30;99.90;;;;;;4693879;30;20076;-79
2021/12/08 13:20:43;;;;;;;8.23;2.80;;;6.30;99.90;;;;;;4697555;30;20057;-79
2021/12/08 13:23:14;;;;;;;7.70;2.60;;;6.30;99.90;;;;;;4688750;30;20411;-79
2021/12/08 13:28:30;;;;;;;7.07;2.55;;;6.30;99.90;;;;;;4705839;30;20049;-80
2021/12/08 13:31:06;;;;;;;5.57;3.00;;;6.30;99.90;;;;;;4703647;30;20053;-79
2021/12/08 13:33:34;;;;;;;12.57;4.87;;;6.30;99.90;;;;;;4687926;30;20049;-80
2021/12/08 13:36:23;;;;;;;7.30;3.93;;;6.40;99.90;;;;;;4709818;30;20063;-79
2021/12/08 13:39:27;;;;;;;5.57;3.60;;;6.40;99.90;;;;;;4691695;30;20046;-79
2021/12/08 13:42:12;;;;;;;5.60;3.20;;;6.40;99.90;;;;;;4692264;30;20061;-80
2021/12/08 13:44:53;;;;;;;9.37;3.03;;;6.30;99.90;;;;;;4712222;30;20115;-80
2021/12/08 13:47:27;;;;;;;7.20;3.30;;;6.40;99.90;;;;;;4716198;30;20079;-79
2021/12/08 13:50:09;;;;;;;6.87;2.70;;;6.40;99.90;;;;;;4687580;30;20537;-79
2021/12/08 13:52:55;;;;;;;10.85;3.22;;;6.30;99.90;;;;;;4695828;30;20056;-80
2021/12/08 13:55:25;;;;;;;7.97;2.57;;;6.30;99.90;;;;;;4696003;30;20054;-80
2021/12/08 13:58:05;;;;;;;4.70;2.50;;;6.30;99.90;;;;;;4711744;30;20413;-80
2021/12/08 14:00:39;;;;;;;8.30;2.80;;;6.30;99.90;;;;;;4677857;30;20110;-80
2021/12/08 14:03:20;;;;;;;10.27;2.73;;;6.30;99.90;;;;;;4707002;30;20076;-79